createdAt,value
2023-03-20T00:01:30.216Z,12.41
2023-03-20T00:03:57.558Z,12.40
2023-03-20T00:06:26.455Z,12.06
2023-03-20T00:08:55.161Z,11.68
2023-03-20T00:11:27.290Z,11.91
2023-03-20T00:13:56.383Z,11.70
2023-03-20T00:16:27.032Z,12.03
2023-03-20T00:18:53.547Z,12.17
2023-03-20T00:21:20.019Z,12.25
2023-03-20T00:23:46.525Z,12.42
2023-03-20T00:26:15.932Z,12.50
2023-03-20T00:28:45.500Z,12.56
2023-03-20T00:31:25.711Z,12.50
2023-03-20T00:34:00.733Z,12.64
2023-03-20T00:36:28.337Z,12.73
2023-03-20T00:38:55.868Z,12.67
2023-03-20T00:41:31.518Z,12.63
2023-03-20T00:44:03.335Z,12.44
2023-03-20T00:46:37.472Z,12.40
2023-03-20T00:49:04.069Z,12.50
2023-03-20T00:51:30.532Z,12.17
2023-03-20T00:53:57.471Z,12.44
2023-03-20T00:56:41.833Z,12.48
2023-03-20T00:59:20.392Z,12.47
2023-03-20T01:01:47.001Z,12.53
2023-03-20T01:04:17.058Z,12.53
2023-03-20T01:06:44.136Z,12.31
2023-03-20T01:09:10.622Z,12.55
2023-03-20T01:11:38.430Z,12.55
2023-03-20T01:14:12.260Z,12.27
2023-03-20T01:16:39.207Z,11.93
2023-03-20T01:19:05.937Z,11.65
2023-03-20T01:21:32.429Z,11.57
2023-03-20T01:23:58.896Z,11.68
2023-03-20T01:26:37.584Z,11.82
2023-03-20T01:29:15.899Z,11.99
2023-03-20T01:31:42.419Z,11.79
2023-03-20T01:34:11.010Z,11.70
2023-03-20T01:36:38.627Z,11.84
2023-03-20T01:39:05.554Z,11.60
2023-03-20T01:41:32.788Z,11.96
2023-03-20T01:44:17.926Z,11.67
2023-03-20T01:46:44.621Z,11.86
2023-03-20T01:49:20.115Z,11.52
2023-03-20T01:51:47.797Z,11.72
2023-03-20T01:54:20.902Z,12.01
2023-03-20T01:56:57.318Z,12.03
2023-03-20T01:59:36.293Z,11.96
2023-03-20T02:02:05.221Z,11.60
2023-03-20T02:04:38.739Z,11.52
2023-03-20T02:07:08.392Z,11.43
2023-03-20T02:09:34.880Z,11.59
2023-03-20T02:12:03.061Z,11.68
2023-03-20T02:14:30.658Z,11.59
2023-03-20T02:16:57.214Z,11.71
2023-03-20T02:19:31.437Z,11.79
2023-03-20T02:22:16.615Z,12.00
2023-03-20T02:25:29.666Z,12.22
2023-03-20T02:28:24.288Z,12.18
2023-03-20T02:31:20.188Z,11.84
2023-03-20T02:34:16.928Z,11.81
2023-03-20T02:37:02.004Z,11.84
2023-03-20T02:39:51.961Z,11.86
2023-03-20T02:42:27.402Z,11.52
2023-03-20T02:45:16.660Z,10.88
2023-03-20T02:48:08.276Z,11.36
2023-03-20T02:50:50.860Z,11.39
2023-03-20T02:53:46.234Z,11.22
2023-03-20T02:56:37.538Z,11.33
2023-03-20T02:59:06.850Z,11.30
2023-03-20T03:01:41.306Z,11.51
2023-03-20T03:04:25.900Z,11.54
2023-03-20T03:06:55.576Z,11.57
2023-03-20T03:09:40.866Z,11.52
2023-03-20T03:12:17.826Z,11.67
2023-03-20T03:14:48.386Z,11.67
2023-03-20T03:17:19.394Z,11.11
2023-03-20T03:19:52.631Z,11.56
2023-03-20T03:22:20.047Z,11.79
2023-03-20T03:24:49.579Z,11.89
2023-03-20T03:27:29.410Z,11.86
2023-03-20T03:30:14.237Z,11.95
2023-03-20T03:32:50.385Z,11.99
2023-03-20T03:35:20.967Z,11.84
2023-03-20T03:37:50.127Z,11.92
2023-03-20T03:40:45.898Z,11.89
2023-03-20T03:43:18.204Z,11.96
2023-03-20T03:46:13.450Z,12.05
2023-03-20T03:48:48.576Z,12.19
2023-03-20T03:51:21.266Z,12.27
2023-03-20T03:54:14.180Z,12.35
2023-03-20T03:56:47.098Z,12.26
2023-03-20T03:59:23.784Z,12.16
2023-03-20T04:01:52.623Z,12.05
2023-03-20T04:04:22.131Z,12.16
2023-03-20T04:06:48.941Z,12.18
2023-03-20T04:09:15.465Z,12.17
2023-03-20T04:11:42.065Z,12.24
2023-03-20T04:14:08.516Z,12.30
2023-03-20T04:16:35.067Z,12.38
2023-03-20T04:19:01.613Z,12.42
2023-03-20T04:21:28.094Z,12.53
2023-03-20T04:23:54.581Z,12.51
2023-03-20T04:26:21.093Z,12.51
2023-03-20T04:28:47.640Z,12.60
2023-03-20T04:31:14.286Z,12.65
2023-03-20T04:33:40.859Z,12.70
2023-03-20T04:36:08.668Z,12.67
2023-03-20T04:38:35.311Z,12.74
2023-03-20T04:41:02.201Z,12.72
2023-03-20T04:43:28.711Z,12.79
2023-03-20T04:45:55.313Z,12.84
2023-03-20T04:48:22.135Z,12.79
2023-03-20T04:50:48.667Z,12.79
2023-03-20T04:53:15.516Z,12.76
2023-03-20T04:55:42.014Z,12.67
2023-03-20T04:58:08.516Z,12.61
2023-03-20T05:00:35.074Z,12.57
2023-03-20T05:03:01.610Z,12.56
2023-03-20T05:05:28.133Z,12.57
2023-03-20T05:07:54.752Z,12.63
2023-03-20T05:10:21.584Z,12.58
2023-03-20T05:12:48.346Z,12.61
2023-03-20T05:15:14.855Z,12.61
2023-03-20T05:17:41.340Z,12.60
2023-03-20T05:20:08.401Z,12.62
2023-03-20T05:22:34.865Z,12.63
2023-03-20T05:25:01.354Z,12.60
2023-03-20T05:27:27.833Z,12.58
2023-03-20T05:29:54.315Z,12.57
2023-03-20T05:32:20.828Z,12.55
2023-03-20T05:34:47.379Z,12.48
2023-03-20T05:37:13.870Z,12.53
2023-03-20T05:39:40.411Z,12.43
2023-03-20T05:42:06.914Z,12.42
2023-03-20T05:44:33.418Z,12.39
2023-03-20T05:46:59.908Z,12.07
2023-03-20T05:49:26.409Z,12.00
2023-03-20T05:51:52.887Z,12.00
2023-03-20T05:54:19.474Z,11.83
2023-03-20T05:56:46.117Z,11.66
2023-03-20T05:59:12.630Z,11.69
2023-03-20T06:01:39.107Z,11.74
2023-03-20T06:04:05.697Z,11.79
2023-03-20T06:06:32.230Z,11.79
2023-03-20T06:08:58.737Z,11.84
2023-03-20T06:11:25.263Z,11.71
2023-03-20T06:13:51.770Z,11.76
2023-03-20T06:16:18.281Z,11.63
2023-03-20T06:18:44.806Z,11.81
2023-03-20T06:21:11.362Z,11.93
2023-03-20T06:23:37.871Z,12.01
2023-03-20T06:26:04.757Z,12.06
2023-03-20T06:28:31.324Z,12.17
2023-03-20T06:30:58.237Z,12.26
2023-03-20T06:33:24.740Z,12.18
2023-03-20T06:35:51.239Z,12.31
2023-03-20T06:38:17.745Z,12.26
2023-03-20T06:40:44.243Z,12.32
2023-03-20T06:43:10.921Z,12.46
2023-03-20T06:45:37.903Z,12.31
2023-03-20T06:48:08.976Z,12.39
2023-03-20T06:50:35.458Z,12.44
2023-03-20T06:53:01.938Z,12.50
2023-03-20T06:55:28.442Z,12.24
2023-03-20T06:57:55.083Z,12.33
2023-03-20T07:00:21.924Z,12.35
2023-03-20T07:02:48.459Z,12.19
2023-03-20T07:05:16.081Z,11.79
2023-03-20T07:07:42.625Z,12.03
2023-03-20T07:10:09.487Z,12.35
2023-03-20T07:12:35.950Z,12.55
2023-03-20T07:15:02.494Z,12.70
2023-03-20T07:17:29.004Z,12.79
2023-03-20T07:19:55.467Z,12.97
2023-03-20T07:22:28.365Z,13.06
2023-03-20T07:24:54.891Z,12.77
2023-03-20T07:27:21.370Z,12.66
2023-03-20T07:29:47.871Z,12.87
2023-03-20T07:32:14.380Z,13.03
2023-03-20T07:34:40.910Z,13.22
2023-03-20T07:37:07.458Z,13.34
2023-03-20T07:39:34.178Z,12.95
2023-03-20T07:42:00.666Z,12.91
2023-03-20T07:44:27.626Z,13.15
2023-03-20T07:46:54.285Z,13.26
2023-03-20T07:49:20.960Z,13.00
2023-03-20T07:51:49.752Z,13.15
2023-03-20T07:54:16.804Z,12.96
2023-03-20T07:56:43.697Z,13.26
2023-03-20T07:59:10.272Z,13.56
2023-03-20T08:01:36.849Z,13.70
2023-03-20T08:04:03.403Z,13.80
2023-03-20T08:06:30.067Z,13.86
2023-03-20T08:08:57.003Z,13.93
2023-03-20T08:11:23.461Z,14.09
2023-03-20T08:13:49.971Z,14.21
2023-03-20T08:16:16.499Z,14.21
2023-03-20T08:18:43.080Z,14.31
2023-03-20T08:21:09.605Z,14.30
2023-03-20T08:23:36.075Z,14.47
2023-03-20T08:26:02.781Z,14.43
2023-03-20T08:28:46.143Z,14.46
2023-03-20T08:31:13.037Z,14.55
2023-03-20T08:33:39.625Z,14.71
2023-03-20T08:36:06.641Z,14.79
2023-03-20T08:38:33.187Z,14.88
2023-03-20T08:40:59.672Z,14.87
2023-03-20T08:43:26.133Z,14.76
2023-03-20T08:45:52.996Z,14.92
2023-03-20T08:48:19.485Z,14.68
2023-03-20T08:50:47.490Z,14.06
2023-03-20T08:53:13.971Z,13.61
2023-03-20T08:55:40.469Z,13.28
2023-03-20T08:58:06.970Z,13.18
2023-03-20T09:00:33.451Z,13.17
2023-03-20T09:02:59.988Z,13.25
2023-03-20T09:05:26.457Z,13.78
2023-03-20T09:07:52.931Z,13.94
2023-03-20T09:10:19.444Z,13.75
2023-03-20T09:12:45.919Z,14.06
2023-03-20T09:15:12.669Z,14.05
2023-03-20T09:17:39.520Z,14.58
2023-03-20T09:20:06.541Z,14.57
2023-03-20T09:22:33.294Z,14.49
2023-03-20T09:24:59.799Z,14.70
2023-03-20T09:27:26.412Z,15.05
2023-03-20T09:29:52.934Z,15.24
2023-03-20T09:32:19.420Z,15.28
2023-03-20T09:34:45.954Z,14.98
2023-03-20T09:37:12.484Z,15.33
2023-03-20T09:39:38.979Z,15.50
2023-03-20T09:42:20.871Z,15.29
2023-03-20T09:45:05.607Z,15.55
2023-03-20T09:48:04.117Z,15.22
2023-03-20T09:51:17.874Z,15.30
2023-03-20T09:53:53.162Z,15.59
2023-03-20T09:56:25.808Z,15.36
2023-03-20T09:58:57.314Z,15.27
2023-03-20T10:01:29.986Z,15.18
2023-03-20T10:04:00.812Z,15.22
2023-03-20T10:06:27.553Z,15.48
2023-03-20T10:08:54.030Z,15.44
2023-03-20T10:11:30.704Z,15.31
2023-03-20T10:14:23.321Z,15.41
2023-03-20T10:17:04.035Z,15.51
2023-03-20T10:19:53.004Z,15.30
2023-03-20T10:22:39.689Z,15.33
2023-03-20T10:25:19.507Z,15.37
2023-03-20T10:27:58.603Z,15.26
2023-03-20T10:30:44.368Z,15.01
2023-03-20T10:33:36.073Z,14.67
2023-03-20T10:36:33.542Z,14.43
2023-03-20T10:39:05.921Z,14.30
2023-03-20T10:41:37.680Z,13.94
2023-03-20T10:44:06.033Z,13.93
2023-03-20T10:46:43.720Z,13.79
2023-03-20T10:49:19.589Z,13.95
2023-03-20T10:51:50.974Z,14.31
2023-03-20T10:54:36.590Z,14.29
2023-03-20T10:57:06.647Z,14.35
2023-03-20T10:59:46.668Z,14.46
2023-03-20T11:02:15.349Z,14.34
2023-03-20T11:04:42.057Z,14.32
2023-03-20T11:07:22.739Z,14.47
2023-03-20T11:10:04.454Z,14.66
2023-03-20T11:12:42.889Z,14.52
2023-03-20T11:15:32.092Z,14.61
2023-03-20T11:18:01.379Z,14.75
2023-03-20T11:20:36.344Z,15.10
2023-03-20T11:23:06.982Z,15.21
2023-03-20T11:25:49.196Z,15.27
2023-03-20T11:28:24.937Z,15.12
2023-03-20T11:31:04.776Z,15.32
2023-03-20T11:33:37.068Z,15.32
2023-03-20T11:36:12.471Z,15.14
2023-03-20T11:38:45.678Z,14.95
2023-03-20T11:41:27.257Z,14.82
2023-03-20T11:43:54.755Z,14.67
2023-03-20T11:46:24.028Z,14.61
2023-03-20T11:49:21.286Z,14.60
2023-03-20T11:51:48.282Z,14.86
2023-03-20T11:54:20.404Z,14.96
2023-03-20T11:56:58.620Z,15.32
2023-03-20T11:59:37.036Z,15.28
2023-03-20T12:02:21.752Z,15.72
2023-03-20T12:04:48.731Z,15.94
2023-03-20T12:07:33.210Z,15.75
2023-03-20T12:10:07.072Z,16.13
2023-03-20T12:12:40.591Z,16.15
2023-03-20T12:15:21.770Z,16.27
2023-03-20T12:18:09.634Z,16.47
2023-03-20T12:20:40.473Z,16.43
2023-03-20T12:23:09.900Z,16.52
2023-03-20T12:26:01.773Z,16.51
2023-03-20T12:28:46.679Z,16.78
2023-03-20T12:31:49.626Z,16.80
2023-03-20T12:34:34.455Z,17.00
2023-03-20T12:37:01.253Z,16.88
2023-03-20T12:39:37.333Z,16.94
2023-03-20T12:42:24.001Z,17.18
2023-03-20T12:45:22.909Z,17.24
2023-03-20T12:48:07.910Z,17.27
2023-03-20T12:50:44.952Z,17.21
2023-03-20T12:53:37.392Z,17.20
2023-03-20T12:56:22.137Z,17.32
2023-03-20T12:59:17.400Z,17.38
2023-03-20T13:02:43.937Z,17.27
2023-03-20T13:05:18.994Z,17.64
2023-03-20T13:08:28.929Z,17.33
2023-03-20T13:11:05.574Z,17.46
2023-03-20T13:13:54.801Z,17.67
2023-03-20T13:16:48.920Z,17.87
2023-03-20T13:19:34.618Z,17.99
2023-03-20T13:22:11.757Z,17.97
2023-03-20T13:25:02.551Z,18.14
2023-03-20T13:27:45.102Z,18.34
2023-03-20T13:30:34.853Z,18.48
2023-03-20T13:33:20.171Z,18.57
2023-03-20T13:35:59.087Z,18.76
2023-03-20T13:38:36.964Z,18.96
2023-03-20T13:41:07.444Z,18.81
2023-03-20T13:43:53.299Z,18.68
2023-03-20T13:46:28.741Z,18.96
2023-03-20T13:49:07.561Z,19.10
2023-03-20T13:51:57.275Z,19.10
2023-03-20T13:54:53.935Z,19.32
2023-03-20T13:58:03.538Z,19.70
2023-03-20T14:01:06.746Z,19.56
2023-03-20T14:03:45.908Z,19.90
2023-03-20T14:06:27.379Z,20.06
2023-03-20T14:08:54.807Z,19.96
2023-03-20T14:11:21.274Z,20.16
2023-03-20T14:13:54.085Z,20.44
2023-03-20T14:16:21.874Z,20.19
2023-03-20T14:19:03.943Z,20.32
2023-03-20T14:21:30.483Z,20.42
2023-03-20T14:24:03.981Z,20.45
2023-03-20T14:26:40.976Z,20.52
2023-03-20T14:29:10.550Z,20.60
2023-03-20T14:31:39.275Z,20.76
2023-03-20T14:34:23.834Z,20.77
2023-03-20T14:37:04.443Z,21.02
2023-03-20T14:40:13.971Z,21.40
2023-03-20T14:42:55.623Z,21.75
2023-03-20T14:45:27.694Z,21.88
2023-03-20T14:48:24.842Z,22.16
2023-03-20T14:50:58.745Z,22.67
2023-03-20T14:53:27.717Z,22.86
2023-03-20T14:55:56.871Z,23.23
2023-03-20T14:58:35.445Z,23.50
2023-03-20T15:01:08.532Z,23.66
2023-03-20T15:03:40.392Z,23.95
2023-03-20T15:06:09.122Z,23.96
2023-03-20T15:08:45.694Z,24.17
2023-03-20T15:11:14.472Z,24.12
2023-03-20T15:13:44.234Z,24.19
2023-03-20T15:16:15.921Z,24.47
2023-03-20T15:18:47.684Z,24.49
2023-03-20T15:21:19.104Z,24.47
2023-03-20T15:23:47.544Z,24.66
2023-03-20T15:26:16.646Z,24.69
2023-03-20T15:28:45.615Z,24.76
2023-03-20T15:31:31.476Z,24.79
2023-03-20T15:34:00.572Z,24.68
2023-03-20T15:36:30.127Z,24.76
2023-03-20T15:39:17.232Z,24.90
2023-03-20T15:41:58.531Z,24.99
2023-03-20T15:44:36.525Z,24.92
2023-03-20T15:47:10.485Z,24.79
2023-03-20T15:49:40.072Z,24.56
2023-03-20T15:52:20.346Z,24.52
2023-03-20T15:54:48.826Z,24.38
2023-03-20T15:57:30.497Z,24.51
2023-03-20T15:59:58.335Z,24.43
2023-03-20T16:02:26.854Z,24.42
2023-03-20T16:04:54.907Z,24.43
2023-03-20T16:07:29.428Z,24.37
2023-03-20T16:09:55.898Z,24.35
2023-03-20T16:12:22.383Z,24.20
2023-03-20T16:14:50.988Z,23.93
2023-03-20T16:17:20.533Z,23.56
2023-03-20T16:19:47.281Z,23.28
2023-03-20T16:22:30.042Z,23.06
2023-03-20T16:25:00.934Z,23.15
2023-03-20T16:27:35.210Z,23.00
2023-03-20T16:30:09.595Z,22.94
2023-03-20T16:32:40.327Z,22.97
2023-03-20T16:35:25.372Z,22.63
2023-03-20T16:37:58.221Z,22.57
2023-03-20T16:40:28.508Z,22.26
2023-03-20T16:42:55.214Z,22.07
2023-03-20T16:45:29.180Z,21.88
2023-03-20T16:48:10.565Z,21.83
2023-03-20T16:50:42.985Z,21.77
2023-03-20T16:53:16.047Z,21.79
2023-03-20T16:55:51.089Z,21.54
2023-03-20T16:58:29.259Z,21.37
2023-03-20T17:01:02.006Z,21.16
2023-03-20T17:03:30.221Z,20.93
2023-03-20T17:05:59.742Z,20.63
2023-03-20T17:08:40.655Z,20.39
2023-03-20T17:11:14.600Z,19.86
2023-03-20T17:13:41.931Z,19.77
2023-03-20T17:16:17.816Z,19.51
2023-03-20T17:18:46.197Z,19.36
2023-03-20T17:21:13.678Z,19.21
2023-03-20T17:23:40.738Z,19.07
2023-03-20T17:26:11.658Z,18.80
2023-03-20T17:28:38.756Z,18.76
2023-03-20T17:31:05.505Z,18.48
2023-03-20T17:33:32.606Z,18.38
2023-03-20T17:36:00.473Z,18.31
2023-03-20T17:38:27.024Z,18.26
2023-03-20T17:40:53.644Z,18.21
2023-03-20T17:43:20.513Z,18.12
2023-03-20T17:45:47.686Z,18.04
2023-03-20T17:48:18.500Z,17.92
2023-03-20T17:50:46.514Z,17.87
2023-03-20T17:53:21.693Z,17.64
2023-03-20T17:55:48.205Z,17.54
2023-03-20T17:58:16.454Z,17.54
2023-03-20T18:00:43.807Z,17.42
2023-03-20T18:03:10.769Z,17.30
2023-03-20T18:05:37.562Z,17.27
2023-03-20T18:08:04.449Z,17.06
2023-03-20T18:10:32.294Z,16.82
2023-03-20T18:12:59.626Z,16.88
2023-03-20T18:15:26.577Z,16.78
2023-03-20T18:17:53.146Z,16.76
2023-03-20T18:20:32.513Z,16.72
2023-03-20T18:22:59.086Z,16.61
2023-03-20T18:25:25.816Z,16.59
2023-03-20T18:27:53.474Z,16.51
2023-03-20T18:30:24.357Z,16.36
2023-03-20T18:32:50.912Z,16.28
2023-03-20T18:35:17.439Z,16.00
2023-03-20T18:37:44.762Z,16.00
2023-03-20T18:40:18.648Z,16.00
2023-03-20T18:42:45.201Z,15.90
2023-03-20T18:45:12.379Z,15.97
2023-03-20T18:47:39.644Z,16.04
2023-03-20T18:50:22.597Z,15.86
2023-03-20T18:52:49.130Z,15.79
2023-03-20T18:55:16.420Z,15.81
2023-03-20T18:57:43.300Z,15.77
2023-03-20T19:00:23.016Z,15.78
2023-03-20T19:02:51.416Z,15.79
2023-03-20T19:05:19.093Z,15.78
2023-03-20T19:07:46.432Z,15.73
2023-03-20T19:10:32.852Z,15.74
2023-03-20T19:12:59.658Z,15.63
2023-03-20T19:15:29.583Z,15.64
2023-03-20T19:17:56.433Z,15.58
2023-03-20T19:20:30.857Z,15.49
2023-03-20T19:22:57.392Z,15.31
2023-03-20T19:25:23.899Z,15.21
2023-03-20T19:27:50.427Z,15.28
2023-03-20T19:30:16.958Z,15.28
2023-03-20T19:32:43.516Z,15.18
2023-03-20T19:38:01.949Z,15.08
2023-03-20T19:40:33.041Z,15.01
2023-03-20T19:43:02.858Z,15.04
2023-03-20T19:45:36.417Z,14.95
2023-03-20T19:48:11.153Z,14.97
2023-03-20T19:50:41.290Z,14.98
2023-03-20T19:53:11.173Z,14.91
2023-03-20T19:55:38.788Z,14.89
2023-03-20T19:58:06.545Z,14.86
2023-03-20T20:00:56.876Z,14.78
2023-03-20T20:03:25.378Z,14.75
2023-03-20T20:05:53.141Z,14.69
2023-03-20T20:08:30.958Z,14.52
2023-03-20T20:11:05.855Z,14.47
2023-03-20T20:13:34.504Z,14.43
2023-03-20T20:16:01.611Z,14.38
2023-03-20T20:18:29.344Z,14.33
2023-03-20T20:22:06.260Z,14.36
2023-03-20T20:23:43.363Z,14.36
2023-03-20T20:26:09.868Z,14.28
2023-03-20T20:28:36.385Z,14.12
2023-03-20T20:31:02.917Z,14.11
2023-03-20T20:33:29.590Z,14.09
2023-03-20T20:36:31.574Z,14.10
2023-03-20T20:38:51.039Z,14.12
2023-03-20T20:41:18.096Z,14.08
2023-03-20T20:46:31.362Z,13.88
2023-03-20T20:48:57.920Z,13.85
2023-03-20T20:51:24.482Z,13.74
2023-03-20T20:53:50.958Z,13.76
2023-03-20T20:56:17.419Z,13.78
2023-03-20T20:58:43.925Z,13.75
2023-03-20T21:01:10.381Z,13.64
2023-03-20T21:03:36.892Z,13.71
2023-03-20T21:06:06.494Z,13.67
2023-03-20T21:08:32.985Z,13.69
2023-03-20T21:10:59.445Z,13.68
2023-03-20T21:13:25.917Z,13.64
2023-03-20T21:15:59.403Z,13.62
2023-03-20T21:18:26.241Z,13.49
2023-03-20T21:20:52.777Z,13.40
2023-03-20T21:23:19.254Z,13.39
2023-03-20T21:25:47.776Z,13.25
2023-03-20T21:28:14.912Z,13.24
2023-03-20T21:30:49.798Z,13.14
2023-03-20T21:33:22.983Z,13.22
2023-03-20T21:35:51.874Z,13.13
2023-03-20T21:41:10.640Z,12.93
2023-03-20T21:43:37.664Z,13.03
2023-03-20T21:46:45.977Z,13.05
2023-03-20T21:49:41.069Z,13.04
2023-03-20T21:55:04.026Z,12.95
2023-03-20T22:02:48.864Z,13.01
2023-03-20T22:05:55.682Z,13.09
2023-03-20T22:11:42.424Z,13.02
2023-03-20T22:22:40.199Z,12.79
2023-03-20T22:25:31.554Z,12.87
2023-03-20T22:31:17.311Z,12.74
2023-03-20T22:44:53.097Z,12.57
2023-03-20T22:46:59.603Z,12.65
2023-03-20T22:49:26.066Z,12.46
2023-03-20T22:52:11.279Z,12.53
2023-03-20T22:54:39.047Z,12.55
2023-03-20T22:57:05.554Z,12.55
2023-03-20T22:59:32.194Z,12.40
2023-03-20T23:01:58.699Z,12.39
2023-03-20T23:04:25.330Z,12.35
2023-03-20T23:06:51.869Z,12.31
2023-03-20T23:09:18.359Z,12.19
2023-03-20T23:11:45.111Z,12.11
2023-03-20T23:14:21.601Z,12.30
2023-03-20T23:16:48.529Z,12.28
2023-03-20T23:19:15.028Z,12.20
2023-03-20T23:21:41.518Z,12.14
2023-03-20T23:24:08.338Z,12.26
2023-03-20T23:26:34.954Z,12.13
2023-03-20T23:29:01.670Z,12.11
2023-03-20T23:31:28.220Z,12.27
2023-03-20T23:33:57.592Z,12.19
2023-03-20T23:36:35.963Z,12.22
2023-03-20T23:39:08.503Z,12.13
2023-03-20T23:44:21.861Z,12.10
2023-03-20T23:46:48.614Z,12.09
2023-03-20T23:49:15.534Z,12.15
2023-03-20T23:51:42.241Z,11.98
2023-03-20T23:54:08.766Z,11.92
2023-03-20T23:56:35.319Z,11.90
2023-03-20T23:59:11.386Z,11.91
